createdAt,value
2022-08-31T00:00:34.543Z,19.29
2022-08-31T00:04:18.769Z,19.27
2022-08-31T00:08:01.594Z,19.21
2022-08-31T00:11:44.344Z,19.15
2022-08-31T00:15:27.629Z,19.10
2022-08-31T00:19:10.541Z,19.05
2022-08-31T00:22:54.756Z,19.03
2022-08-31T00:26:40.370Z,18.99
2022-08-31T00:30:23.488Z,18.96
2022-08-31T00:34:06.390Z,18.93
2022-08-31T00:37:49.171Z,18.92
2022-08-31T00:41:36.462Z,18.96
2022-08-31T00:45:19.769Z,18.97
2022-08-31T00:49:05.364Z,18.93
2022-08-31T00:52:50.478Z,18.91
2022-08-31T00:56:34.867Z,18.91
2022-08-31T01:00:20.019Z,18.89
2022-08-31T01:04:02.978Z,18.88
2022-08-31T01:07:47.700Z,18.84
2022-08-31T01:11:30.744Z,18.72
2022-08-31T01:15:16.422Z,18.70
2022-08-31T01:19:00.564Z,18.71
2022-08-31T01:22:57.071Z,18.75
2022-08-31T01:26:39.918Z,18.71
2022-08-31T01:30:25.783Z,18.67
2022-08-31T01:34:08.743Z,18.63
2022-08-31T01:37:51.717Z,18.67
2022-08-31T01:41:41.189Z,18.66
2022-08-31T01:45:24.084Z,18.62
2022-08-31T01:49:07.208Z,18.63
2022-08-31T01:52:49.971Z,18.63
2022-08-31T01:56:37.861Z,18.67
2022-08-31T02:00:21.189Z,18.65
2022-08-31T02:04:05.767Z,18.62
2022-08-31T02:07:48.507Z,18.58
2022-08-31T02:11:31.291Z,18.56
2022-08-31T02:15:15.455Z,18.49
2022-08-31T02:18:58.239Z,18.44
2022-08-31T02:22:41.376Z,18.39
2022-08-31T02:26:24.302Z,18.37
2022-08-31T02:30:11.772Z,18.37
2022-08-31T02:33:55.934Z,18.38
2022-08-31T02:37:38.803Z,18.37
2022-08-31T02:41:21.633Z,18.35
2022-08-31T02:45:06.357Z,18.34
2022-08-31T02:48:49.142Z,18.33
2022-08-31T02:52:33.319Z,18.33
2022-08-31T02:56:16.290Z,18.34
2022-08-31T02:59:59.107Z,18.31
2022-08-31T03:03:46.225Z,18.33
2022-08-31T03:07:34.076Z,18.32
2022-08-31T03:11:17.945Z,18.30
2022-08-31T03:15:00.671Z,18.28
2022-08-31T03:18:43.416Z,18.27
2022-08-31T03:22:26.199Z,18.29
2022-08-31T03:26:10.351Z,18.24
2022-08-31T03:29:53.453Z,18.24
2022-08-31T03:33:36.345Z,18.26
2022-08-31T03:37:21.587Z,18.26
2022-08-31T03:41:04.414Z,18.29
2022-08-31T03:44:48.965Z,18.30
2022-08-31T03:48:31.758Z,18.31
2022-08-31T03:52:14.542Z,18.33
2022-08-31T03:56:01.915Z,18.30
2022-08-31T03:59:44.755Z,18.31
2022-08-31T04:03:29.435Z,18.30
2022-08-31T04:07:12.198Z,18.30
2022-08-31T04:10:54.995Z,18.27
2022-08-31T04:14:37.794Z,18.24
2022-08-31T04:18:21.370Z,18.24
2022-08-31T04:22:05.691Z,18.24
2022-08-31T04:25:48.436Z,18.20
2022-08-31T04:29:31.693Z,18.14
2022-08-31T04:33:14.538Z,18.10
2022-08-31T04:36:57.460Z,18.08
2022-08-31T04:40:43.014Z,18.08
2022-08-31T04:44:26.828Z,18.09
2022-08-31T04:48:09.653Z,18.12
2022-08-31T04:51:52.514Z,18.12
2022-08-31T04:55:35.274Z,18.14
2022-08-31T04:59:19.544Z,18.17
2022-08-31T05:03:02.586Z,18.15
2022-08-31T05:06:46.743Z,18.20
2022-08-31T05:10:29.549Z,18.24
2022-08-31T05:14:12.321Z,18.28
2022-08-31T05:17:56.528Z,18.29
2022-08-31T05:21:41.015Z,18.28
2022-08-31T05:25:23.808Z,18.31
2022-08-31T05:29:10.481Z,18.33
2022-08-31T05:32:53.230Z,18.33
2022-08-31T05:36:37.457Z,18.33
2022-08-31T05:40:20.520Z,18.31
2022-08-31T05:44:04.303Z,18.33
2022-08-31T05:47:47.102Z,18.36
2022-08-31T05:51:30.019Z,18.37
2022-08-31T05:55:14.410Z,18.40
2022-08-31T05:58:57.753Z,18.45
2022-08-31T06:02:40.989Z,18.51
2022-08-31T06:06:27.243Z,18.58
2022-08-31T06:10:11.410Z,18.61
2022-08-31T06:13:56.915Z,18.66
2022-08-31T06:17:39.796Z,18.71
2022-08-31T06:21:24.257Z,18.75
2022-08-31T06:25:08.399Z,18.77
2022-08-31T06:28:54.031Z,18.77
2022-08-31T06:32:40.221Z,18.74
2022-08-31T06:36:25.661Z,18.77
2022-08-31T06:40:09.900Z,18.81
2022-08-31T06:43:52.805Z,18.84
2022-08-31T06:47:35.623Z,18.87
2022-08-31T06:51:19.813Z,18.78
2022-08-31T06:55:03.009Z,18.77
2022-08-31T06:58:46.679Z,18.77
2022-08-31T07:02:36.328Z,18.84
2022-08-31T07:06:22.100Z,18.94
2022-08-31T07:10:05.619Z,18.90
2022-08-31T07:13:49.129Z,18.78
2022-08-31T07:17:35.348Z,18.82
2022-08-31T07:21:21.340Z,18.90
2022-08-31T07:25:04.188Z,18.95
2022-08-31T07:28:52.872Z,19.01
2022-08-31T07:32:35.658Z,18.93
2022-08-31T07:36:20.052Z,18.94
2022-08-31T07:40:20.929Z,18.92
2022-08-31T07:44:04.400Z,18.95
2022-08-31T07:47:47.960Z,19.03
2022-08-31T07:51:32.073Z,19.11
2022-08-31T07:55:17.766Z,19.14
2022-08-31T07:59:00.560Z,19.21
2022-08-31T08:02:46.432Z,19.27
2022-08-31T08:06:37.508Z,19.27
2022-08-31T08:10:24.101Z,19.31
2022-08-31T08:14:08.754Z,19.20
2022-08-31T08:17:51.800Z,19.17
2022-08-31T08:21:34.785Z,19.15
2022-08-31T08:25:19.097Z,19.23
2022-08-31T08:29:09.126Z,19.25
2022-08-31T08:32:52.470Z,19.31
2022-08-31T08:36:36.859Z,19.24
2022-08-31T08:40:30.342Z,19.23
2022-08-31T08:44:17.933Z,19.28
2022-08-31T08:48:01.337Z,19.35
2022-08-31T08:51:44.956Z,19.48
2022-08-31T08:55:36.976Z,19.61
2022-08-31T08:59:20.572Z,19.70
2022-08-31T09:03:07.235Z,19.88
2022-08-31T09:06:54.890Z,20.32
2022-08-31T09:10:45.596Z,20.43
2022-08-31T09:14:37.227Z,20.41
2022-08-31T09:18:30.022Z,20.22
2022-08-31T09:22:12.741Z,20.13
2022-08-31T09:25:59.098Z,20.09
2022-08-31T09:29:44.091Z,20.28
2022-08-31T09:33:28.580Z,20.42
2022-08-31T09:37:16.220Z,20.54
2022-08-31T09:41:02.085Z,20.65
2022-08-31T09:44:48.169Z,20.74
2022-08-31T09:48:45.279Z,21.04
2022-08-31T09:52:53.321Z,21.14
2022-08-31T09:56:55.003Z,21.07
2022-08-31T10:00:40.771Z,21.05
2022-08-31T10:04:26.730Z,20.98
2022-08-31T10:08:21.099Z,20.99
2022-08-31T10:12:10.384Z,20.91
2022-08-31T10:15:55.609Z,20.89
2022-08-31T10:19:51.712Z,21.00
2022-08-31T10:23:37.219Z,20.82
2022-08-31T10:27:31.443Z,20.71
2022-08-31T10:31:21.198Z,20.67
2022-08-31T10:35:08.457Z,20.54
2022-08-31T10:38:52.227Z,20.51
2022-08-31T10:42:39.510Z,20.38
2022-08-31T10:46:22.311Z,20.27
2022-08-31T10:50:05.711Z,20.19
2022-08-31T10:53:59.820Z,20.08
2022-08-31T10:57:51.075Z,20.10
2022-08-31T11:01:40.186Z,20.40
2022-08-31T11:05:32.544Z,20.51
2022-08-31T11:09:19.335Z,20.54
2022-08-31T11:13:07.403Z,20.22
2022-08-31T11:17:11.832Z,19.76
2022-08-31T11:21:09.056Z,19.64
2022-08-31T11:25:11.057Z,19.43
2022-08-31T11:28:58.778Z,19.21
2022-08-31T11:32:45.875Z,19.12
2022-08-31T11:36:51.012Z,19.10
2022-08-31T11:41:14.096Z,19.14
2022-08-31T11:45:03.191Z,19.08
2022-08-31T11:48:59.727Z,18.99
2022-08-31T11:52:48.143Z,18.82
2022-08-31T11:56:36.602Z,18.73
2022-08-31T12:00:21.485Z,18.70
2022-08-31T12:04:04.419Z,18.67
2022-08-31T12:07:49.534Z,18.66
2022-08-31T12:11:40.914Z,18.66
2022-08-31T12:15:31.809Z,18.62
2022-08-31T12:19:45.997Z,18.53
2022-08-31T12:23:38.744Z,18.49
2022-08-31T12:27:28.312Z,18.47
2022-08-31T12:31:15.753Z,18.42
2022-08-31T12:35:06.245Z,18.43
2022-08-31T12:39:06.234Z,18.55
2022-08-31T12:43:01.757Z,18.59
2022-08-31T12:47:02.417Z,18.63
2022-08-31T12:50:50.181Z,18.61
2022-08-31T12:54:50.954Z,18.53
2022-08-31T12:58:51.163Z,18.42
2022-08-31T13:02:41.471Z,18.45
2022-08-31T13:06:28.400Z,18.48
2022-08-31T13:10:14.162Z,18.49
2022-08-31T13:14:12.669Z,18.55
2022-08-31T13:17:57.137Z,18.63
2022-08-31T13:21:40.812Z,18.50
2022-08-31T13:25:35.865Z,18.38
2022-08-31T13:29:25.001Z,18.37
2022-08-31T13:33:23.231Z,18.44
2022-08-31T13:37:13.315Z,18.50
2022-08-31T13:40:56.946Z,18.53
2022-08-31T13:44:44.137Z,18.56
2022-08-31T13:48:31.647Z,18.60
2022-08-31T13:52:17.457Z,18.64
2022-08-31T13:56:02.881Z,18.70
2022-08-31T13:59:45.673Z,18.76
2022-08-31T14:03:40.987Z,18.85
2022-08-31T14:07:25.688Z,18.94
2022-08-31T14:11:14.077Z,19.02
2022-08-31T14:14:59.452Z,19.12
2022-08-31T14:18:45.141Z,19.17
2022-08-31T14:22:30.695Z,19.18
2022-08-31T14:26:15.829Z,19.12
2022-08-31T14:30:01.076Z,19.13
2022-08-31T14:33:50.081Z,19.15
2022-08-31T14:37:32.844Z,18.99
2022-08-31T14:41:18.710Z,18.80
2022-08-31T14:45:03.920Z,18.71
2022-08-31T14:48:48.053Z,18.62
2022-08-31T14:52:30.810Z,18.56
2022-08-31T14:56:20.489Z,18.51
2022-08-31T15:00:06.714Z,18.41
2022-08-31T15:03:51.205Z,18.38
2022-08-31T15:07:39.168Z,18.32
2022-08-31T15:11:22.217Z,18.25
2022-08-31T15:15:09.833Z,18.21
2022-08-31T15:18:54.324Z,18.13
2022-08-31T15:22:38.760Z,18.01
2022-08-31T15:26:23.032Z,18.01
2022-08-31T15:30:08.581Z,18.01
2022-08-31T15:33:55.352Z,17.97
2022-08-31T15:37:45.173Z,17.95
2022-08-31T15:41:30.158Z,17.93
2022-08-31T15:45:13.062Z,17.90
2022-08-31T15:48:57.223Z,17.80
2022-08-31T15:52:43.828Z,17.70
2022-08-31T15:56:29.372Z,17.76
2022-08-31T16:00:15.575Z,17.75
2022-08-31T16:03:59.789Z,17.72
2022-08-31T16:07:43.113Z,17.70
2022-08-31T16:11:27.564Z,17.76
2022-08-31T16:15:11.297Z,17.85
2022-08-31T16:18:57.515Z,17.89
2022-08-31T16:22:46.197Z,17.92
2022-08-31T16:26:30.113Z,17.94
2022-08-31T16:30:15.721Z,18.00
2022-08-31T16:33:58.654Z,18.10
2022-08-31T16:37:42.772Z,18.17
2022-08-31T16:41:26.463Z,18.14
2022-08-31T16:45:13.627Z,18.12
2022-08-31T16:49:13.632Z,18.09
2022-08-31T16:53:00.014Z,18.01
2022-08-31T16:56:43.518Z,17.96
2022-08-31T17:00:37.901Z,17.92
2022-08-31T17:04:48.245Z,17.87
2022-08-31T17:08:26.970Z,17.79
2022-08-31T17:12:13.257Z,17.76
2022-08-31T17:15:56.857Z,17.73
2022-08-31T17:19:40.846Z,17.75
2022-08-31T17:23:24.495Z,17.80
2022-08-31T17:27:10.513Z,17.80
2022-08-31T17:30:53.292Z,17.79
2022-08-31T17:34:37.523Z,17.80
2022-08-31T17:38:20.434Z,17.81
2022-08-31T17:42:03.391Z,17.82
2022-08-31T17:45:47.517Z,17.84
2022-08-31T17:49:31.387Z,17.82
2022-08-31T17:53:20.817Z,17.77
2022-08-31T17:57:05.653Z,17.70
2022-08-31T18:00:50.557Z,17.63
2022-08-31T18:04:34.887Z,17.61
2022-08-31T18:08:17.792Z,17.55
2022-08-31T18:12:00.987Z,17.58
2022-08-31T18:15:43.728Z,17.57
2022-08-31T18:19:29.300Z,17.57
2022-08-31T18:23:12.554Z,17.57
2022-08-31T18:26:58.822Z,17.53
2022-08-31T18:30:41.669Z,17.46
2022-08-31T18:34:28.168Z,17.39
2022-08-31T18:38:13.139Z,17.37
2022-08-31T18:42:13.342Z,17.35
2022-08-31T18:45:56.058Z,17.34
2022-08-31T18:49:43.116Z,17.38
2022-08-31T18:53:30.220Z,17.34
2022-08-31T18:57:13.410Z,17.31
2022-08-31T19:00:57.650Z,17.32
2022-08-31T19:04:41.949Z,17.35
2022-08-31T19:08:24.939Z,17.34
2022-08-31T19:12:09.079Z,17.34
2022-08-31T19:15:51.917Z,17.33
2022-08-31T19:19:34.736Z,17.31
2022-08-31T19:23:20.404Z,17.32
2022-08-31T19:27:03.393Z,17.31
2022-08-31T19:30:47.609Z,17.28
2022-08-31T19:34:33.000Z,17.28
2022-08-31T19:38:15.778Z,17.25
2022-08-31T19:42:03.315Z,17.21
2022-08-31T19:45:46.084Z,17.16
2022-08-31T19:49:31.165Z,17.12
2022-08-31T19:53:20.422Z,17.05
2022-08-31T19:57:06.757Z,17.01
2022-08-31T20:00:49.913Z,17.01
2022-08-31T20:04:33.863Z,16.98
2022-08-31T20:08:16.870Z,16.94
2022-08-31T20:12:00.205Z,16.91
2022-08-31T20:15:47.235Z,16.90
2022-08-31T20:19:36.184Z,16.88
2022-08-31T20:23:21.202Z,16.88
2022-08-31T20:27:09.381Z,16.91
2022-08-31T20:31:00.115Z,16.92
2022-08-31T20:34:44.666Z,16.93
2022-08-31T20:38:28.879Z,16.96
2022-08-31T20:42:11.636Z,16.96
2022-08-31T20:45:55.893Z,16.96
2022-08-31T20:49:39.928Z,16.99
2022-08-31T20:53:39.066Z,16.99
2022-08-31T20:57:25.900Z,16.95
2022-08-31T21:01:12.117Z,16.96
2022-08-31T21:04:54.872Z,16.95
2022-08-31T21:08:38.379Z,16.90
2022-08-31T21:12:23.836Z,16.87
2022-08-31T21:16:06.816Z,16.85
2022-08-31T21:19:51.323Z,16.84
2022-08-31T21:23:34.187Z,16.86
2022-08-31T21:27:19.378Z,16.86
2022-08-31T21:31:15.476Z,16.87
2022-08-31T21:35:02.581Z,16.87
2022-08-31T21:38:47.434Z,16.87
2022-08-31T21:42:32.397Z,16.81
2022-08-31T21:46:17.013Z,16.75
2022-08-31T21:49:59.803Z,16.66
2022-08-31T21:53:45.881Z,16.56
2022-08-31T21:57:28.679Z,16.44
2022-08-31T22:01:13.285Z,16.34
2022-08-31T22:04:56.203Z,16.37
2022-08-31T22:08:40.056Z,16.43
2022-08-31T22:12:25.230Z,16.49
2022-08-31T22:16:13.272Z,16.50
2022-08-31T22:20:00.938Z,16.50
2022-08-31T22:23:44.151Z,16.56
2022-08-31T22:27:28.298Z,16.55
2022-08-31T22:31:11.897Z,16.55
2022-08-31T22:34:54.719Z,16.56
2022-08-31T22:38:39.006Z,16.54
2022-08-31T22:42:24.512Z,16.51
2022-08-31T22:46:12.058Z,16.52
2022-08-31T22:49:57.395Z,16.50
2022-08-31T22:53:40.882Z,16.50
2022-08-31T22:57:23.609Z,16.50
2022-08-31T23:01:07.157Z,16.45
2022-08-31T23:04:51.337Z,16.44
2022-08-31T23:08:34.205Z,16.42
2022-08-31T23:12:16.969Z,16.40
2022-08-31T23:15:59.965Z,16.40
2022-08-31T23:19:43.745Z,16.40
2022-08-31T23:23:28.596Z,16.41
2022-08-31T23:27:12.721Z,16.40
2022-08-31T23:30:55.532Z,16.40
2022-08-31T23:34:38.509Z,16.39
2022-08-31T23:38:21.422Z,16.37
2022-08-31T23:42:06.388Z,16.34
2022-08-31T23:45:49.225Z,16.30
2022-08-31T23:49:33.200Z,16.30
2022-08-31T23:53:17.468Z,16.30
2022-08-31T23:57:02.110Z,16.29
